Time;durP1;ratioP1;P1;durP2;ratioP2;P2;SDS_P1;SDS_P2;PMS_P1;PMS_P2;Temp;Humidity;BMP_temperature;BMP_pressure;BME280_temperature;BME280_humidity;BME280_pressure;Samples;Min_cycle;Max_cycle;Signal;HPM_P1;HPM_P2
2023/09/22 00:01:50;;;;;;;1999.90;999.90;;;13.50;99.90;;;;;;4973110;28;20084;-67
2023/09/22 00:04:16;;;;;;;1999.90;999.90;;;13.50;99.90;;;;;;4984931;28;20065;-68
2023/09/22 00:06:41;;;;;;;1999.90;999.90;;;13.50;99.90;;;;;;4972007;28;20440;-68
2023/09/22 00:09:08;;;;;;;1999.90;999.90;;;13.60;99.90;;;;;;4975932;28;20034;-67
2023/09/22 00:11:33;;;;;;;1999.90;999.90;;;13.60;99.90;;;;;;4975471;28;20042;-67
2023/09/22 00:13:59;;;;;;;1999.90;999.90;;;13.60;99.90;;;;;;4971097;28;20742;-67
2023/09/22 00:16:25;;;;;;;1999.90;999.90;;;13.60;99.90;;;;;;5000438;28;20104;-67
2023/09/22 00:18:50;;;;;;;1999.90;999.90;;;13.60;99.90;;;;;;4972111;28;20108;-68
2023/09/22 00:21:16;;;;;;;1999.90;999.90;;;13.60;99.90;;;;;;4999288;28;20089;-68
2023/09/22 00:23:42;;;;;;;1999.90;999.90;;;13.60;99.90;;;;;;4968397;28;20113;-67
2023/09/22 00:26:07;;;;;;;1999.90;999.90;;;13.70;99.90;;;;;;4972986;28;20558;-68
2023/09/22 00:28:33;;;;;;;1999.90;999.90;;;13.70;99.90;;;;;;4969321;28;20053;-68
2023/09/22 00:30:59;;;;;;;1999.90;999.90;;;13.70;99.90;;;;;;4975384;28;20042;-68
2023/09/22 00:33:25;;;;;;;1999.90;999.90;;;13.80;99.90;;;;;;4977070;28;20043;-67
2023/09/22 00:35:51;;;;;;;1999.90;999.90;;;13.80;99.90;;;;;;4977614;28;20102;-68
2023/09/22 00:38:17;;;;;;;1999.90;999.90;;;13.80;99.90;;;;;;4980305;28;20100;-67
2023/09/22 00:40:43;;;;;;;1999.90;999.90;;;13.80;99.90;;;;;;4968418;28;20050;-68
2023/09/22 00:43:10;;;;;;;1999.90;999.90;;;13.80;99.90;;;;;;4973407;28;20121;-68
2023/09/22 00:45:41;;;;;;;1999.90;999.90;;;13.90;99.90;;;;;;4980615;28;20050;-68
2023/09/22 00:48:08;;;;;;;1999.90;999.90;;;13.90;99.90;;;;;;4982285;28;20505;-67
2023/09/22 00:50:35;;;;;;;1999.90;999.90;;;13.90;99.90;;;;;;4980144;28;20117;-67
2023/09/22 00:53:00;;;;;;;1999.90;999.90;;;13.90;99.90;;;;;;4978733;28;20034;-68
2023/09/22 00:55:26;;;;;;;1999.90;999.90;;;13.90;99.90;;;;;;5009672;28;20494;-68
2023/09/22 00:57:52;;;;;;;1999.90;999.90;;;13.90;99.90;;;;;;4978257;28;20074;-67
2023/09/22 01:00:19;;;;;;;1999.90;999.90;;;13.90;99.90;;;;;;4979436;28;20164;-67
2023/09/22 01:02:45;;;;;;;1999.90;999.90;;;13.90;99.90;;;;;;4974368;28;20043;-67
2023/09/22 01:05:10;;;;;;;1999.90;999.90;;;13.90;99.90;;;;;;4972806;28;20104;-67
2023/09/22 01:07:37;;;;;;;1999.90;999.90;;;13.90;99.90;;;;;;4969019;28;20497;-67
2023/09/22 01:10:09;;;;;;;1999.90;999.90;;;13.90;99.90;;;;;;4966063;28;20126;-67
2023/09/22 01:12:35;;;;;;;1999.90;999.90;;;13.90;99.90;;;;;;4976294;28;20031;-67
2023/09/22 01:15:00;;;;;;;1999.90;999.90;;;13.90;99.90;;;;;;4999195;28;20054;-67
2023/09/22 01:17:26;;;;;;;1999.90;999.90;;;13.90;99.90;;;;;;4951226;28;20047;-67
2023/09/22 01:19:52;;;;;;;1999.90;999.90;;;13.90;99.90;;;;;;4974871;28;20051;-68
2023/09/22 01:22:18;;;;;;;1999.90;999.90;;;13.90;99.90;;;;;;4982930;28;20129;-67
2023/09/22 01:24:44;;;;;;;1999.90;999.90;;;13.90;99.90;;;;;;4981131;28;20057;-68
2023/09/22 01:27:09;;;;;;;1999.90;999.90;;;13.90;99.90;;;;;;4983157;28;20392;-68
2023/09/22 01:29:35;;;;;;;1999.90;999.90;;;13.90;99.90;;;;;;4977264;28;20054;-68
2023/09/22 01:32:00;;;;;;;1999.90;999.90;;;13.90;99.90;;;;;;4981971;28;20494;-67
2023/09/22 01:34:26;;;;;;;1999.90;999.90;;;14.00;99.90;;;;;;4973207;28;20038;-67
2023/09/22 01:36:52;;;;;;;1999.90;999.90;;;14.00;99.90;;;;;;4974684;28;20062;-68
2023/09/22 01:39:18;;;;;;;1999.90;999.90;;;14.00;99.90;;;;;;4973870;28;20462;-67
2023/09/22 01:41:43;;;;;;;1999.90;999.90;;;14.00;99.90;;;;;;4980287;28;20050;-67
2023/09/22 01:44:10;;;;;;;1999.90;999.90;;;14.00;99.90;;;;;;4980093;28;20046;-68
2023/09/22 01:46:36;;;;;;;1999.90;999.90;;;14.00;99.90;;;;;;4974779;28;20051;-67
2023/09/22 01:49:02;;;;;;;1999.90;999.90;;;14.00;99.90;;;;;;5009778;28;20053;-68
2023/09/22 01:51:28;;;;;;;1999.90;999.90;;;14.00;99.90;;;;;;4992923;28;20042;-67
2023/09/22 01:53:55;;;;;;;1999.90;999.90;;;14.00;99.90;;;;;;5008969;28;20064;-67
2023/09/22 01:56:21;;;;;;;1999.90;999.90;;;14.00;99.90;;;;;;4981562;28;20935;-67
2023/09/22 01:58:48;;;;;;;1999.90;999.90;;;14.00;99.90;;;;;;4965301;28;20625;-67
2023/09/22 02:01:14;;;;;;;1999.90;999.90;;;14.00;99.90;;;;;;4968690;28;20050;-67
2023/09/22 02:03:40;;;;;;;1999.90;999.90;;;14.00;99.90;;;;;;4965595;28;20501;-68
2023/09/22 02:06:05;;;;;;;1999.90;999.90;;;14.10;99.90;;;;;;4969998;28;20376;-67
2023/09/22 02:08:31;;;;;;;1999.90;999.90;;;14.10;99.90;;;;;;4972466;28;20051;-68
2023/09/22 02:10:57;;;;;;;1999.90;999.90;;;14.10;99.90;;;;;;4980453;28;20046;-67
2023/09/22 02:13:22;;;;;;;1999.90;999.90;;;14.20;99.90;;;;;;4976900;28;20055;-68
2023/09/22 02:15:48;;;;;;;1999.90;999.90;;;14.20;99.90;;;;;;4973661;28;20473;-67
2023/09/22 02:18:14;;;;;;;1999.90;999.90;;;14.20;99.90;;;;;;4948620;28;20450;-68
2023/09/22 02:20:41;;;;;;;1999.90;999.90;;;14.20;99.90;;;;;;4999647;28;20089;-67
2023/09/22 02:23:07;;;;;;;1999.90;999.90;;;14.20;99.90;;;;;;4972444;28;20074;-67
2023/09/22 02:25:33;;;;;;;1999.90;999.90;;;14.20;99.90;;;;;;4998740;28;20093;-67
2023/09/22 02:27:59;;;;;;;1999.90;999.90;;;14.20;99.90;;;;;;4974879;28;20464;-68
2023/09/22 02:30:26;;;;;;;1999.90;999.90;;;14.20;99.90;;;;;;4996073;28;20095;-68
2023/09/22 02:32:52;;;;;;;1999.90;999.90;;;14.10;99.90;;;;;;5002746;28;20375;-67
2023/09/22 02:35:20;;;;;;;1999.90;999.90;;;14.20;99.90;;;;;;4977237;28;20044;-68
2023/09/22 02:37:46;;;;;;;1999.90;999.90;;;14.20;99.90;;;;;;4974306;28;20061;-67
2023/09/22 02:40:13;;;;;;;1999.90;999.90;;;14.10;99.90;;;;;;4958508;28;20051;-68
2023/09/22 02:42:40;;;;;;;1999.90;999.90;;;14.10;99.90;;;;;;4970174;28;20043;-67
2023/09/22 02:45:06;;;;;;;1999.90;999.90;;;14.00;99.90;;;;;;4979432;28;20698;-67
2023/09/22 02:47:32;;;;;;;1999.90;999.90;;;14.00;99.90;;;;;;4974083;28;20038;-68
2023/09/22 02:49:57;;;;;;;1999.90;999.90;;;13.90;99.90;;;;;;4975325;28;20035;-68
2023/09/22 02:52:23;;;;;;;1999.90;999.90;;;13.90;99.90;;;;;;4976904;28;20042;-67
2023/09/22 02:54:57;;;;;;;1999.90;999.90;;;13.80;99.90;;;;;;4969631;28;20790;-68
2023/09/22 02:57:23;;;;;;;1999.90;999.90;;;13.80;99.90;;;;;;4968489;28;20145;-67
2023/09/22 02:59:53;;;;;;;1999.90;999.90;;;13.70;99.90;;;;;;4970313;28;20125;-68
2023/09/22 03:02:20;;;;;;;1999.90;999.90;;;13.70;99.90;;;;;;4972755;28;20481;-67
2023/09/22 03:04:46;;;;;;;1999.90;999.90;;;13.60;99.90;;;;;;4975279;28;20104;-67
2023/09/22 03:07:12;;;;;;;1999.90;999.90;;;13.60;99.90;;;;;;4970941;28;20046;-68
2023/09/22 03:09:38;;;;;;;1999.90;999.90;;;13.50;99.90;;;;;;4975682;28;20497;-67
2023/09/22 03:12:04;;;;;;;1999.90;999.90;;;13.50;99.90;;;;;;5003584;28;20484;-67
2023/09/22 03:14:30;;;;;;;1999.90;999.90;;;13.40;99.90;;;;;;4973495;28;20129;-67
2023/09/22 03:16:57;;;;;;;1999.90;999.90;;;13.40;99.90;;;;;;4973425;28;20035;-67
2023/09/22 03:19:23;;;;;;;1999.90;999.90;;;13.50;99.90;;;;;;4968425;28;20074;-67
2023/09/22 03:21:49;;;;;;;1999.90;999.90;;;13.50;99.90;;;;;;4976949;28;20063;-67
2023/09/22 03:24:14;;;;;;;1999.90;999.90;;;13.50;99.90;;;;;;5005207;28;20054;-67
2023/09/22 03:26:40;;;;;;;1999.90;999.90;;;13.50;99.90;;;;;;4972146;28;20049;-67
2023/09/22 03:29:06;;;;;;;1999.90;999.90;;;13.40;99.90;;;;;;4970924;28;20110;-68
2023/09/22 03:31:31;;;;;;;1999.90;999.90;;;13.40;99.90;;;;;;4977130;28;20383;-67
2023/09/22 03:33:57;;;;;;;1999.90;999.90;;;13.40;99.90;;;;;;4971159;28;20065;-67
2023/09/22 03:36:24;;;;;;;1999.90;999.90;;;13.40;99.90;;;;;;4975521;28;20497;-67
2023/09/22 03:38:51;;;;;;;1999.90;999.90;;;13.40;99.90;;;;;;4973939;28;20058;-67
2023/09/22 03:41:18;;;;;;;1999.90;999.90;;;13.30;99.90;;;;;;4976198;28;20058;-67
2023/09/22 03:43:44;;;;;;;1999.90;999.90;;;13.30;99.90;;;;;;4977133;28;20096;-67
2023/09/22 03:46:10;;;;;;;1999.90;999.90;;;13.20;99.90;;;;;;4968991;28;20054;-67
2023/09/22 03:48:39;;;;;;;1999.90;999.90;;;13.20;99.90;;;;;;4969235;28;20106;-67
2023/09/22 03:51:05;;;;;;;1999.90;999.90;;;13.10;99.90;;;;;;4999558;28;20038;-67
2023/09/22 03:53:31;;;;;;;1999.90;999.90;;;13.10;99.90;;;;;;4975461;28;20061;-67
2023/09/22 03:56:00;;;;;;;1999.90;999.90;;;13.00;99.90;;;;;;4982701;28;20027;-67
2023/09/22 03:58:26;;;;;;;1999.90;999.90;;;13.00;99.90;;;;;;4977561;28;20098;-68
2023/09/22 04:01:02;;;;;;;1999.90;999.90;;;12.90;99.90;;;;;;4982276;28;20042;-67
2023/09/22 04:03:28;;;;;;;1999.90;999.90;;;12.90;99.90;;;;;;4988259;28;20085;-68
2023/09/22 04:05:54;;;;;;;1999.90;999.90;;;12.90;99.90;;;;;;4953346;28;20058;-68
2023/09/22 04:08:21;;;;;;;1999.90;999.90;;;12.90;99.90;;;;;;4985847;28;20148;-68
2023/09/22 04:10:47;;;;;;;1999.90;999.90;;;13.00;99.90;;;;;;5007511;28;20115;-68
2023/09/22 04:13:14;;;;;;;1999.90;999.90;;;13.10;99.90;;;;;;4990944;28;20125;-68
2023/09/22 04:15:40;;;;;;;1999.90;999.90;;;13.10;99.90;;;;;;4982650;28;20050;-67
2023/09/22 04:18:06;;;;;;;1999.90;999.90;;;13.10;99.90;;;;;;5018361;28;20159;-68
2023/09/22 04:20:35;;;;;;;1999.90;999.90;;;13.20;99.90;;;;;;4987423;28;20050;-69
2023/09/22 04:23:04;;;;;;;1999.90;999.90;;;13.20;99.90;;;;;;4977331;28;20043;-68
2023/09/22 04:25:33;;;;;;;1999.90;999.90;;;13.20;99.90;;;;;;4985225;28;20050;-68
2023/09/22 04:28:09;;;;;;;1999.90;999.90;;;13.30;99.90;;;;;;4987449;28;20046;-68
2023/09/22 04:30:39;;;;;;;1999.90;999.90;;;13.30;99.90;;;;;;4977830;28;20052;-68
2023/09/22 04:33:05;;;;;;;1999.90;999.90;;;13.40;99.90;;;;;;4984836;28;20052;-67
2023/09/22 04:35:32;;;;;;;1999.90;999.90;;;13.40;99.90;;;;;;4970565;28;20406;-68
2023/09/22 04:37:59;;;;;;;1999.90;999.90;;;13.50;99.90;;;;;;4989501;28;20048;-68
2023/09/22 04:40:27;;;;;;;1999.90;999.90;;;13.50;99.90;;;;;;4994472;28;20056;-68
2023/09/22 04:42:53;;;;;;;1999.90;999.90;;;13.50;99.90;;;;;;4974214;28;20059;-68
2023/09/22 04:45:19;;;;;;;1999.90;999.90;;;13.50;99.90;;;;;;4999457;28;20058;-68
2023/09/22 04:47:47;;;;;;;1999.90;999.90;;;13.50;99.90;;;;;;4968838;28;20647;-68
2023/09/22 04:50:15;;;;;;;1999.90;999.90;;;13.50;99.90;;;;;;4969108;28;20128;-68
2023/09/22 04:52:42;;;;;;;1999.90;999.90;;;13.40;99.90;;;;;;4980808;28;20073;-68
2023/09/22 04:55:08;;;;;;;1999.90;999.90;;;13.40;99.90;;;;;;4985916;28;20064;-68
2023/09/22 04:57:33;;;;;;;1999.90;999.90;;;13.40;99.90;;;;;;4964251;28;20059;-68
2023/09/22 04:59:59;;;;;;;1999.90;999.90;;;13.40;99.90;;;;;;4987371;28;20050;-68
2023/09/22 05:02:25;;;;;;;1999.90;999.90;;;13.40;99.90;;;;;;4977315;28;20038;-68
2023/09/22 05:04:50;;;;;;;1999.90;999.90;;;13.40;99.90;;;;;;4982275;28;20181;-68
2023/09/22 05:07:16;;;;;;;1999.90;999.90;;;13.50;99.90;;;;;;4983668;28;20486;-68
2023/09/22 05:09:43;;;;;;;1999.90;999.90;;;13.50;99.90;;;;;;4985624;28;20107;-68
2023/09/22 05:12:09;;;;;;;1999.90;999.90;;;13.50;99.90;;;;;;4982325;28;20039;-68
2023/09/22 05:14:35;;;;;;;1999.90;999.90;;;13.50;99.90;;;;;;4977382;28;20050;-68
2023/09/22 05:17:01;;;;;;;1999.90;999.90;;;13.40;99.90;;;;;;4971626;28;20418;-68
2023/09/22 05:19:26;;;;;;;1999.90;999.90;;;13.40;99.90;;;;;;4969757;28;20038;-68
2023/09/22 05:21:52;;;;;;;1999.90;999.90;;;13.30;99.90;;;;;;4974204;28;20057;-68
2023/09/22 05:24:17;;;;;;;1999.90;999.90;;;13.30;99.90;;;;;;4994075;28;20077;-68
2023/09/22 05:26:43;;;;;;;1999.90;999.90;;;13.20;99.90;;;;;;4968725;28;20438;-68
2023/09/22 05:29:08;;;;;;;1999.90;999.90;;;13.20;99.90;;;;;;4977562;28;20039;-68
2023/09/22 05:31:36;;;;;;;1999.90;999.90;;;13.10;99.90;;;;;;4974279;28;20035;-68
2023/09/22 05:34:02;;;;;;;1999.90;999.90;;;13.10;99.90;;;;;;4983800;28;20502;-68
2023/09/22 05:36:29;;;;;;;1999.90;999.90;;;13.00;99.90;;;;;;4974021;28;20111;-68
2023/09/22 05:38:56;;;;;;;1999.90;999.90;;;13.00;99.90;;;;;;4975749;28;20046;-68
2023/09/22 05:41:22;;;;;;;1999.90;999.90;;;13.00;99.90;;;;;;4970031;28;20413;-68
2023/09/22 05:43:47;;;;;;;1999.90;999.90;;;13.00;99.90;;;;;;4974231;28;20035;-68
2023/09/22 05:46:13;;;;;;;1999.90;999.90;;;13.00;99.90;;;;;;4975034;28;20383;-68
2023/09/22 05:48:38;;;;;;;1999.90;999.90;;;13.00;99.90;;;;;;4968720;28;20043;-68
2023/09/22 05:51:05;;;;;;;1999.90;999.90;;;13.00;99.90;;;;;;4974967;28;20819;-68
2023/09/22 05:53:30;;;;;;;1999.90;999.90;;;13.00;99.90;;;;;;4972141;28;20410;-68
2023/09/22 05:56:10;;;;;;;1999.90;999.90;;;13.00;99.90;;;;;;4997321;28;20046;-68
2023/09/22 05:58:37;;;;;;;1999.90;999.90;;;12.90;99.90;;;;;;4977236;28;20050;-68
2023/09/22 06:01:09;;;;;;;1999.90;999.90;;;13.00;99.90;;;;;;4983500;28;20407;-68
2023/09/22 06:03:40;;;;;;;1999.90;999.90;;;13.00;99.90;;;;;;4985274;28;20054;-68
2023/09/22 06:06:08;;;;;;;1999.90;999.90;;;13.00;99.90;;;;;;4984945;28;20049;-68
2023/09/22 06:08:36;;;;;;;1999.90;999.90;;;13.00;99.90;;;;;;4986120;28;20125;-68
2023/09/22 06:11:02;;;;;;;1999.90;999.90;;;13.00;99.90;;;;;;4985125;28;20046;-68
2023/09/22 06:13:27;;;;;;;1999.90;999.90;;;13.00;99.90;;;;;;4985779;28;20582;-68
2023/09/22 06:15:53;;;;;;;1999.90;999.90;;;13.10;99.90;;;;;;5009590;28;20131;-68
2023/09/22 06:18:19;;;;;;;1999.90;999.90;;;13.10;99.90;;;;;;4979590;28;20053;-68
2023/09/22 06:20:45;;;;;;;1999.90;999.90;;;13.10;99.90;;;;;;4971690;28;20125;-68
2023/09/22 06:23:10;;;;;;;1999.90;999.90;;;13.10;99.90;;;;;;4988508;28;20070;-68
2023/09/22 06:25:36;;;;;;;1999.90;999.90;;;13.10;99.90;;;;;;4981081;28;20469;-68
2023/09/22 06:28:04;;;;;;;1999.90;999.90;;;13.10;99.90;;;;;;5017225;28;20095;-68
2023/09/22 06:30:34;;;;;;;1999.90;999.90;;;13.10;99.90;;;;;;4969433;28;20534;-68
2023/09/22 06:33:00;;;;;;;1999.90;999.90;;;13.10;99.90;;;;;;4977379;28;20038;-68
2023/09/22 06:35:26;;;;;;;1999.90;999.90;;;13.10;99.90;;;;;;4984366;28;20046;-68
2023/09/22 06:37:51;;;;;;;1999.90;999.90;;;13.10;99.90;;;;;;4991268;28;20046;-68
2023/09/22 06:40:17;;;;;;;1999.90;999.90;;;13.10;99.90;;;;;;4973110;28;20049;-68
2023/09/22 06:42:45;;;;;;;1999.90;999.90;;;13.10;99.90;;;;;;4968936;28;20067;-68
2023/09/22 06:45:11;;;;;;;1999.90;999.90;;;13.10;99.90;;;;;;4969983;28;20133;-68
2023/09/22 06:47:43;;;;;;;1999.90;999.90;;;13.20;99.90;;;;;;4974184;28;20072;-68
2023/09/22 06:50:11;;;;;;;1999.90;999.90;;;13.20;99.90;;;;;;4973787;28;20066;-68
2023/09/22 06:52:37;;;;;;;1999.90;999.90;;;13.20;99.90;;;;;;4980360;28;20050;-68
2023/09/22 06:55:08;;;;;;;1999.90;999.90;;;13.30;99.90;;;;;;4987126;28;20092;-68
2023/09/22 06:57:36;;;;;;;1999.90;999.90;;;13.30;99.90;;;;;;4979430;28;20123;-68
2023/09/22 07:00:06;;;;;;;1999.90;999.90;;;13.40;99.90;;;;;;4988427;28;20038;-68
2023/09/22 07:02:31;;;;;;;1999.90;999.90;;;13.50;99.90;;;;;;4986150;28;20047;-68
2023/09/22 07:04:57;;;;;;;1999.90;999.90;;;13.50;99.90;;;;;;5001109;28;20049;-68
2023/09/22 07:07:23;;;;;;;1999.90;999.90;;;13.50;99.90;;;;;;4985768;28;20103;-68
2023/09/22 07:09:49;;;;;;;1999.90;999.90;;;13.60;99.90;;;;;;4978853;28;20042;-68
2023/09/22 07:12:14;;;;;;;1999.90;999.90;;;13.60;99.90;;;;;;5003272;28;20046;-68
2023/09/22 07:14:40;;;;;;;1999.90;999.90;;;13.60;99.90;;;;;;4982914;28;20047;-68
2023/09/22 07:17:06;;;;;;;1999.90;999.90;;;13.70;99.90;;;;;;4983502;28;20066;-68
2023/09/22 07:19:34;;;;;;;1999.90;999.90;;;13.70;99.90;;;;;;4972273;28;20129;-68
2023/09/22 07:22:00;;;;;;;1999.90;999.90;;;13.70;99.90;;;;;;4980921;28;20069;-68
2023/09/22 07:24:25;;;;;;;1999.90;999.90;;;13.70;99.90;;;;;;4977349;28;20561;-68
2023/09/22 07:26:51;;;;;;;1999.90;999.90;;;13.70;99.90;;;;;;4980308;28;20042;-68
2023/09/22 07:29:17;;;;;;;1999.90;999.90;;;13.70;99.90;;;;;;4980170;28;20045;-68
2023/09/22 07:31:44;;;;;;;1999.90;999.90;;;13.70;99.90;;;;;;4977816;28;20042;-68
2023/09/22 07:34:10;;;;;;;1999.90;999.90;;;13.80;99.90;;;;;;4983012;28;20050;-68
2023/09/22 07:36:36;;;;;;;1999.90;999.90;;;13.80;99.90;;;;;;4981462;28;20057;-68
2023/09/22 07:39:02;;;;;;;1999.90;999.90;;;13.80;99.90;;;;;;4980527;28;20060;-68
2023/09/22 07:41:27;;;;;;;1999.90;999.90;;;13.80;99.90;;;;;;4979428;28;20096;-68
2023/09/22 07:43:53;;;;;;;1999.90;999.90;;;13.80;99.90;;;;;;4978450;28;20604;-67
2023/09/22 07:46:19;;;;;;;1999.90;999.90;;;13.80;99.90;;;;;;4985488;28;20125;-68
2023/09/22 07:48:45;;;;;;;1999.90;999.90;;;13.80;99.90;;;;;;5019895;27;20467;-68
2023/09/22 07:51:11;;;;;;;1999.90;999.90;;;13.80;99.90;;;;;;5010543;28;20057;-68
2023/09/22 07:53:38;;;;;;;1999.90;999.90;;;13.80;99.90;;;;;;4978321;28;20490;-68
2023/09/22 07:56:04;;;;;;;1999.90;999.90;;;13.80;99.90;;;;;;4963814;28;20042;-68
2023/09/22 07:58:29;;;;;;;1999.90;999.90;;;13.80;99.90;;;;;;4980308;28;20054;-68
2023/09/22 08:00:58;;;;;;;1999.90;999.90;;;13.90;99.90;;;;;;4966925;28;20425;-68
2023/09/22 08:03:24;;;;;;;1999.90;999.90;;;13.90;99.90;;;;;;4975256;28;20121;-68
2023/09/22 08:05:50;;;;;;;1999.90;999.90;;;13.90;99.90;;;;;;4981506;28;20048;-68
2023/09/22 08:08:17;;;;;;;1999.90;999.90;;;14.00;99.90;;;;;;5004985;28;20038;-68
2023/09/22 08:10:43;;;;;;;1999.90;999.90;;;14.10;99.90;;;;;;4981183;28;20135;-68
2023/09/22 08:13:08;;;;;;;1999.90;999.90;;;14.20;99.90;;;;;;4979342;28;20035;-68
2023/09/22 08:15:37;;;;;;;1999.90;999.90;;;14.30;99.90;;;;;;4977355;28;20046;-68
2023/09/22 08:18:07;;;;;;;1999.90;999.90;;;14.30;99.90;;;;;;4977503;28;20050;-68
2023/09/22 08:20:34;;;;;;;1999.90;999.90;;;14.40;99.90;;;;;;4979588;28;20126;-69
2023/09/22 08:23:00;;;;;;;1999.90;999.90;;;14.40;99.90;;;;;;5002620;28;20108;-68
2023/09/22 08:25:25;;;;;;;1999.90;999.90;;;14.40;99.90;;;;;;4978413;28;20039;-68
2023/09/22 08:27:52;;;;;;;1999.90;999.90;;;14.40;99.90;;;;;;4992778;28;20038;-68
2023/09/22 08:30:19;;;;;;;1999.90;999.90;;;14.40;99.90;;;;;;4985156;28;20074;-68
2023/09/22 08:32:45;;;;;;;1999.90;999.90;;;14.40;99.90;;;;;;4989292;28;20050;-68
2023/09/22 08:35:17;;;;;;;1999.90;999.90;;;14.40;99.90;;;;;;4986710;28;20453;-68
2023/09/22 08:37:44;;;;;;;1999.90;999.90;;;14.40;99.90;;;;;;4980410;28;20520;-68
2023/09/22 08:40:14;;;;;;;1999.90;999.90;;;14.50;99.90;;;;;;4970020;28;20049;-68
2023/09/22 08:42:43;;;;;;;1999.90;999.90;;;14.50;99.90;;;;;;4978841;28;20053;-68
2023/09/22 08:45:09;;;;;;;1999.90;999.90;;;14.70;99.90;;;;;;4981902;28;20112;-68
2023/09/22 08:47:39;;;;;;;1999.90;999.90;;;14.80;99.90;;;;;;4961985;28;20045;-68
2023/09/22 08:50:12;;;;;;;1999.90;999.90;;;15.00;99.90;;;;;;4971294;28;20060;-68
2023/09/22 08:52:42;;;;;;;1999.90;999.90;;;15.20;99.90;;;;;;5002373;28;20078;-69
2023/09/22 08:55:14;;;;;;;1999.90;999.90;;;15.40;99.90;;;;;;4976712;28;20057;-68
2023/09/22 08:57:44;;;;;;;1999.90;999.90;;;15.60;99.90;;;;;;4969333;28;20056;-68
2023/09/22 09:00:26;;;;;;;1999.90;999.90;;;15.90;99.90;;;;;;4999806;28;20046;-68
2023/09/22 09:02:54;;;;;;;1999.90;999.90;;;16.00;99.90;;;;;;4981393;28;20042;-69
2023/09/22 09:05:31;;;;;;;1999.90;999.90;;;15.90;99.90;;;;;;4971024;28;20046;-68
2023/09/22 09:08:10;;;;;;;1999.90;999.90;;;15.90;99.90;;;;;;4972869;28;20413;-69
2023/09/22 09:10:37;;;;;;;1999.90;999.90;;;15.90;99.90;;;;;;4969074;28;20092;-68
2023/09/22 09:13:03;;;;;;;1999.90;999.90;;;15.80;99.90;;;;;;4972261;28;20127;-68
2023/09/22 09:15:41;;;;;;;1999.90;999.90;;;15.90;99.90;;;;;;4977761;28;20513;-68
2023/09/22 09:18:11;;;;;;;1999.90;999.90;;;16.00;99.90;;;;;;4997801;28;20409;-68
2023/09/22 09:20:40;;;;;;;1999.90;999.90;;;16.00;99.90;;;;;;4998670;28;20061;-68
2023/09/22 09:23:21;;;;;;;1999.90;999.90;;;16.00;99.90;;;;;;4973586;28;20044;-68
2023/09/22 09:25:50;;;;;;;1999.90;999.90;;;16.20;99.90;;;;;;4974034;28;20410;-68
2023/09/22 09:28:17;;;;;;;1999.90;999.90;;;16.50;99.90;;;;;;4990176;28;20090;-68
2023/09/22 09:30:54;;;;;;;1999.90;999.90;;;17.10;99.90;;;;;;4989113;28;20042;-68
2023/09/22 09:33:25;;;;;;;1999.90;999.90;;;17.80;99.90;;;;;;5001296;28;20117;-69
2023/09/22 09:35:52;;;;;;;1999.90;999.90;;;18.20;99.90;;;;;;4982681;28;20042;-68
2023/09/22 09:38:18;;;;;;;1999.90;999.90;;;18.30;99.90;;;;;;4999212;28;20046;-69
2023/09/22 09:40:44;;;;;;;1999.90;999.90;;;18.10;99.90;;;;;;4973058;28;20034;-68
2023/09/22 09:43:14;;;;;;;1999.90;999.90;;;18.10;99.90;;;;;;4993644;28;20103;-68
2023/09/22 09:45:51;;;;;;;1999.90;999.90;;;18.00;99.90;;;;;;4977272;28;20489;-69
2023/09/22 09:48:19;;;;;;;1999.90;999.90;;;18.00;99.90;;;;;;4977042;28;20058;-69
2023/09/22 09:50:50;;;;;;;1999.90;999.90;;;18.10;99.90;;;;;;4991531;28;20487;-68
2023/09/22 09:53:36;;;;;;;1999.90;999.90;;;18.20;99.90;;;;;;4987759;28;20039;-69
2023/09/22 09:56:03;;;;;;;1999.90;999.90;;;18.20;99.90;;;;;;5006745;28;20034;-68
2023/09/22 09:58:37;;;;;;;1999.90;999.90;;;18.00;99.90;;;;;;4973442;28;20038;-69
2023/09/22 10:01:06;;;;;;;1999.90;999.90;;;17.60;99.90;;;;;;4982544;28;20145;-69
2023/09/22 10:03:36;;;;;;;1999.90;999.90;;;17.30;99.90;;;;;;4977550;28;20452;-68
2023/09/22 10:06:03;;;;;;;1999.90;999.90;;;17.10;99.90;;;;;;5022612;27;20034;-68
2023/09/22 10:08:30;;;;;;;1999.90;999.90;;;17.00;99.90;;;;;;4997428;28;20053;-68
2023/09/22 10:11:02;;;;;;;1999.90;999.90;;;17.20;99.90;;;;;;4977011;28;20376;-68
2023/09/22 10:13:27;;;;;;;1999.90;999.90;;;17.30;99.90;;;;;;4978431;28;20069;-69
2023/09/22 10:16:04;;;;;;;1999.90;999.90;;;17.40;99.90;;;;;;5006893;28;20050;-68
2023/09/22 10:18:55;;;;;;;1999.90;999.90;;;17.40;99.90;;;;;;5034221;27;20104;-68
2023/09/22 10:21:36;;;;;;;1999.90;999.90;;;17.30;99.90;;;;;;4970136;28;20046;-68
2023/09/22 10:24:25;;;;;;;1999.90;999.90;;;17.30;99.90;;;;;;4968151;28;20140;-68
2023/09/22 10:26:57;;;;;;;1999.90;999.90;;;17.30;99.90;;;;;;4974249;28;20034;-68
2023/09/22 10:29:37;;;;;;;1999.90;999.90;;;17.30;99.90;;;;;;4976564;28;20038;-68
2023/09/22 10:32:18;;;;;;;1999.90;999.90;;;17.60;99.90;;;;;;4977873;28;20671;-68
2023/09/22 10:34:53;;;;;;;1999.90;999.90;;;17.80;99.90;;;;;;4969846;28;20668;-68
2023/09/22 10:37:27;;;;;;;1999.90;999.90;;;18.00;99.90;;;;;;4985177;28;20410;-68
2023/09/22 10:39:58;;;;;;;1999.90;999.90;;;18.10;99.90;;;;;;4975819;28;20072;-68
2023/09/22 10:42:26;;;;;;;1999.90;999.90;;;18.00;99.90;;;;;;4974973;28;20054;-68
2023/09/22 10:45:04;;;;;;;1999.90;999.90;;;17.90;99.90;;;;;;4976412;28;20061;-68
2023/09/22 10:47:47;;;;;;;1520.22;769.35;;;17.90;99.90;;;;;;4978339;28;20050;-68
2023/09/22 10:50:16;;;;;;;1999.90;999.90;;;17.70;99.90;;;;;;4975585;28;20035;-68
2023/09/22 10:53:00;;;;;;;85.03;81.25;;;17.50;99.90;;;;;;4980067;28;20042;-68
2023/09/22 10:55:36;;;;;;;1999.90;999.90;;;17.40;99.90;;;;;;4976682;28;20049;-67
2023/09/22 10:58:07;;;;;;;1999.90;999.90;;;17.10;99.90;;;;;;4976712;28;20232;-68
2023/09/22 11:00:44;;;;;;;1999.90;999.90;;;17.10;99.90;;;;;;4991897;28;20040;-68
2023/09/22 11:03:14;;;;;;;1999.90;999.90;;;17.20;99.90;;;;;;4968303;28;20169;-68
2023/09/22 11:05:46;;;;;;;1999.90;999.90;;;17.60;99.90;;;;;;4978318;28;20043;-68
2023/09/22 11:08:12;;;;;;;101.97;97.47;;;18.10;99.90;;;;;;4985513;28;20073;-68
2023/09/22 11:10:38;;;;;;;110.35;105.55;;;18.20;99.90;;;;;;4999527;28;20039;-68
2023/09/22 11:13:04;;;;;;;110.88;106.13;;;18.10;99.90;;;;;;4981711;28;20045;-69
2023/09/22 11:15:30;;;;;;;135.00;129.35;;;18.00;99.90;;;;;;4986880;28;20050;-68
2023/09/22 11:17:55;;;;;;;1999.90;999.90;;;18.00;99.90;;;;;;4977168;28;20673;-68
2023/09/22 11:20:28;;;;;;;92.63;88.70;;;17.90;99.90;;;;;;4991002;28;20042;-67
2023/09/22 11:22:56;;;;;;;103.15;98.80;;;18.00;99.90;;;;;;4985243;28;20034;-67
2023/09/22 11:25:22;;;;;;;1999.90;999.90;;;18.20;99.90;;;;;;5015854;27;20051;-68
2023/09/22 11:27:52;;;;;;;185.27;177.32;;;18.20;99.90;;;;;;4976519;28;20394;-68
2023/09/22 11:30:25;;;;;;;321.60;306.92;;;18.60;99.90;;;;;;4993540;28;21418;-68
2023/09/22 11:32:51;;;;;;;131.23;125.75;;;18.90;99.90;;;;;;4986154;28;20121;-68
2023/09/22 11:35:39;;;;;;;224.70;215.07;;;19.30;99.90;;;;;;4981372;28;20044;-67
2023/09/22 11:38:31;;;;;;;187.07;178.68;;;19.60;99.90;;;;;;4993063;28;20061;-68
2023/09/22 11:41:15;;;;;;;186.23;177.65;;;19.70;99.90;;;;;;4960955;28;20368;-68
2023/09/22 11:43:48;;;;;;;197.98;189.13;;;19.40;99.90;;;;;;4977802;28;20034;-68
2023/09/22 11:46:15;;;;;;;319.88;304.92;;;19.10;99.90;;;;;;4975433;28;20141;-68
2023/09/22 11:49:12;;;;;;;244.43;233.50;;;18.90;99.90;;;;;;4975646;28;20406;-66
2023/09/22 11:51:43;;;;;;;129.55;123.90;;;18.70;99.90;;;;;;4944475;28;20047;-68
2023/09/22 11:54:10;;;;;;;190.50;182.25;;;18.50;99.90;;;;;;4944133;28;20411;-68
2023/09/22 11:56:36;;;;;;;234.05;224.15;;;18.30;99.90;;;;;;4940795;28;20059;-68
2023/09/22 11:59:22;;;;;;;272.05;260.58;;;18.10;99.90;;;;;;4926494;28;20093;-68
2023/09/22 12:01:51;;;;;;;235.30;225.38;;;17.90;99.90;;;;;;4932004;28;20073;-67
2023/09/22 12:04:22;;;;;;;320.55;306.70;;;17.80;99.90;;;;;;4945350;28;20054;-68
2023/09/22 12:06:51;;;;;;;333.67;318.83;;;17.60;99.90;;;;;;4940578;28;20049;-67